Terminal Aerodrome Forecast
Issued by NWS Goodland, KS

Home | Current Version | Previous Version | Text Only | Print | Product List | Glossary On
Versions: 1 2 3 4 5 6 7 8 9 10 11 12 13 14
000
FTUS43 KGLD 231100
TAFGLD
TAF
KGLD 231121Z 2312/2412 21024G32KT P6SM BKN150
     FM231800 24018G25KT P6SM SCT300
     FM232300 32021G29KT P6SM VCTS SCT130CB
     FM240000 36032G45KT 3SM -TSRA BLDU SCT025 BKN100CB
     FM240400 35025G36KT P6SM SCT035 BKN070
     FM240800 34015G22KT P6SM BKN100
     FM241100 32012KT P6SM SCT100=

USA.gov is the U.S. government's official web portal to all federal, state and local government web resources and services.